Time;durP1;ratioP1;P1;durP2;ratioP2;P2;SDS_P1;SDS_P2;PMS_P1;PMS_P2;Temp;Humidity;BMP_temperature;BMP_pressure;BME280_temperature;BME280_humidity;BME280_pressure;Samples;Min_cycle;Max_cycle;Signal;HPM_P1;HPM_P2
2022/03/06 00:00:49;;;;;;;52.17;22.83;;;;;;;;;;5030708;27;95755;-75
2022/03/06 00:03:17;;;;;;;44.63;21.80;;;;;;;;;;5028907;28;98725;-73
2022/03/06 00:05:45;;;;;;;47.92;21.90;;;;;;;;;;5030517;28;95393;-73
2022/03/06 00:08:12;;;;;;;50.72;20.98;;;;;;;;;;5030204;27;96791;-73
2022/03/06 00:10:40;;;;;;;53.33;23.52;;;;;;;;;;5033890;27;96445;-74
2022/03/06 00:13:09;;;;;;;50.58;21.65;;;;;;;;;;5029517;28;97239;-73
2022/03/06 00:15:37;;;;;;;56.95;22.27;;;;;;;;;;5010524;28;96167;-74
2022/03/06 00:18:05;;;;;;;45.53;20.83;;;;;;;;;;5009992;28;95453;-73
2022/03/06 00:20:33;;;;;;;47.70;19.92;;;;;;;;;;5011148;28;97119;-75
2022/03/06 00:23:01;;;;;;;47.40;20.48;;;;;;;;;;5010137;28;97431;-73
2022/03/06 00:25:29;;;;;;;42.95;19.83;;;;;;;;;;5008654;28;95901;-73
2022/03/06 00:27:57;;;;;;;43.70;20.67;;;;;;;;;;5009034;28;95717;-73
2022/03/06 00:30:25;;;;;;;46.17;20.20;;;;;;;;;;5010183;28;98274;-73
2022/03/06 00:32:58;;;;;;;42.17;18.90;;;;;;;;;;5013058;28;96185;-73
2022/03/06 00:35:28;;;;;;;43.42;19.25;;;;;;;;;;5012674;28;95338;-73
2022/03/06 00:38:06;;;;;;;42.58;19.27;;;;;;;;;;5011446;28;95430;-73
2022/03/06 00:40:42;;;;;;;43.15;19.15;;;;;;;;;;5010897;28;95843;-73
2022/03/06 00:43:15;;;;;;;39.60;19.08;;;;;;;;;;5011110;28;97013;-73
2022/03/06 00:45:46;;;;;;;41.35;19.42;;;;;;;;;;5025780;28;95166;-74
2022/03/06 00:48:19;;;;;;;46.03;19.63;;;;;;;;;;5029713;27;96812;-73
2022/03/06 00:50:49;;;;;;;43.75;19.92;;;;;;;;;;5029593;27;96113;-74
2022/03/06 00:53:18;;;;;;;43.10;19.15;;;;;;;;;;5029161;27;95601;-73
2022/03/06 00:55:48;;;;;;;42.60;19.65;;;;;;;;;;5030480;28;96383;-74
2022/03/06 00:58:23;;;;;;;39.67;19.02;;;;;;;;;;5028263;28;95308;-73
2022/03/06 01:00:54;;;;;;;44.97;18.77;;;;;;;;;;5029756;27;96049;-74
2022/03/06 01:03:23;;;;;;;46.22;20.60;;;;;;;;;;5029509;28;97351;-73
2022/03/06 01:06:01;;;;;;;43.80;20.77;;;;;;;;;;5014573;27;95571;-73
2022/03/06 01:08:29;;;;;;;47.03;19.63;;;;;;;;;;5009593;28;97142;-73
2022/03/06 01:10:59;;;;;;;46.45;20.42;;;;;;;;;;5009647;28;97359;-74
2022/03/06 01:13:26;;;;;;;41.50;19.92;;;;;;;;;;5009806;28;95485;-74
2022/03/06 01:15:56;;;;;;;46.05;20.80;;;;;;;;;;5020002;28;96108;-74
2022/03/06 01:18:29;;;;;;;45.10;21.17;;;;;;;;;;5033051;27;96256;-73
2022/03/06 01:20:58;;;;;;;44.13;19.13;;;;;;;;;;5029153;27;95647;-74
2022/03/06 01:23:26;;;;;;;42.65;20.58;;;;;;;;;;5029281;27;96099;-73
2022/03/06 01:25:54;;;;;;;48.25;21.20;;;;;;;;;;5020412;28;95759;-74
2022/03/06 01:28:28;;;;;;;45.05;21.17;;;;;;;;;;5008727;28;97263;-73
2022/03/06 01:30:55;;;;;;;40.03;20.00;;;;;;;;;;5011026;28;96645;-73
2022/03/06 01:33:25;;;;;;;44.28;21.02;;;;;;;;;;4993972;28;95509;-73
2022/03/06 01:35:56;;;;;;;46.58;21.10;;;;;;;;;;5013496;28;97191;-74
2022/03/06 01:38:29;;;;;;;41.42;20.52;;;;;;;;;;5018751;28;97784;-74
2022/03/06 01:41:03;;;;;;;43.90;19.92;;;;;;;;;;5010691;28;95863;-75
2022/03/06 01:43:32;;;;;;;41.35;19.00;;;;;;;;;;5010134;28;96374;-75
2022/03/06 01:45:59;;;;;;;41.53;19.48;;;;;;;;;;5008913;28;95880;-74
2022/03/06 01:48:27;;;;;;;38.95;19.80;;;;;;;;;;5016475;28;95652;-74
2022/03/06 01:50:54;;;;;;;45.70;20.00;;;;;;;;;;5028572;28;97363;-75
2022/03/06 01:53:21;;;;;;;39.38;19.00;;;;;;;;;;5028797;27;95916;-74
2022/03/06 01:55:50;;;;;;;36.60;18.20;;;;;;;;;;5029076;27;96102;-74
2022/03/06 01:58:18;;;;;;;38.53;18.08;;;;;;;;;;5027351;27;96089;-74
2022/03/06 02:00:49;;;;;;;42.08;19.30;;;;;;;;;;5028677;27;95750;-75
2022/03/06 02:03:17;;;;;;;42.90;19.70;;;;;;;;;;5035394;27;96982;-75
2022/03/06 02:05:52;;;;;;;39.53;18.65;;;;;;;;;;5032750;27;95399;-74
2022/03/06 02:08:21;;;;;;;38.80;18.00;;;;;;;;;;5028741;27;95781;-74
2022/03/06 02:10:50;;;;;;;39.78;17.33;;;;;;;;;;5018817;28;96343;-74
2022/03/06 02:13:17;;;;;;;32.88;17.40;;;;;;;;;;5031987;28;95552;-74
2022/03/06 02:15:47;;;;;;;35.53;16.38;;;;;;;;;;5032274;27;96921;-74
2022/03/06 02:18:17;;;;;;;35.08;16.38;;;;;;;;;;5030145;27;97466;-75
2022/03/06 02:20:47;;;;;;;32.03;16.58;;;;;;;;;;5011863;28;95630;-75
2022/03/06 02:23:24;;;;;;;45.60;17.67;;;;;;;;;;5014349;28;95711;-76
2022/03/06 02:25:57;;;;;;;33.08;15.45;;;;;;;;;;5025300;28;95362;-74
2022/03/06 02:28:26;;;;;;;33.70;13.32;;;;;;;;;;5030201;28;96624;-75
2022/03/06 02:30:56;;;;;;;30.15;14.32;;;;;;;;;;4992009;28;96432;-75
2022/03/06 02:33:23;;;;;;;29.38;15.02;;;;;;;;;;4991791;28;95349;-74
2022/03/06 02:36:01;;;;;;;27.27;14.27;;;;;;;;;;4991882;28;96860;-74
2022/03/06 02:38:28;;;;;;;30.40;13.80;;;;;;;;;;4991046;28;97461;-74
2022/03/06 02:41:22;;;;;;;21.88;10.63;;;;;;;;;;5030192;28;95539;-74
2022/03/06 02:43:50;;;;;;;31.92;14.00;;;;;;;;;;5029936;28;98420;-74
2022/03/06 02:46:16;;;;;;;27.30;13.90;;;;;;;;;;5024920;28;97633;-74
2022/03/06 02:48:43;;;;;;;26.35;13.25;;;;;;;;;;4990745;28;96797;-75
2022/03/06 02:51:10;;;;;;;28.63;14.75;;;;;;;;;;5008018;28;97396;-74
2022/03/06 02:53:37;;;;;;;24.98;13.43;;;;;;;;;;4999700;28;95381;-74
2022/03/06 02:56:03;;;;;;;27.50;13.02;;;;;;;;;;4996787;28;95819;-74
2022/03/06 02:58:29;;;;;;;25.60;13.65;;;;;;;;;;4999516;28;96612;-75
2022/03/06 03:00:56;;;;;;;27.77;13.77;;;;;;;;;;5010126;28;95520;-75
2022/03/06 03:03:22;;;;;;;29.60;14.52;;;;;;;;;;5004703;28;97206;-75
2022/03/06 03:05:49;;;;;;;26.85;13.75;;;;;;;;;;4994603;28;97366;-75
2022/03/06 03:08:15;;;;;;;29.80;13.90;;;;;;;;;;5005571;28;95857;-74
2022/03/06 03:10:42;;;;;;;32.40;15.05;;;;;;;;;;5008917;28;97394;-75
2022/03/06 03:13:08;;;;;;;29.15;15.45;;;;;;;;;;4997533;28;95697;-75
2022/03/06 03:15:34;;;;;;;28.75;14.82;;;;;;;;;;5002860;28;96932;-75
2022/03/06 03:18:01;;;;;;;29.40;13.85;;;;;;;;;;4997313;28;97480;-76
2022/03/06 03:20:27;;;;;;;27.63;14.57;;;;;;;;;;5004206;28;95806;-75
2022/03/06 03:22:53;;;;;;;30.60;15.20;;;;;;;;;;4999712;28;96768;-76
2022/03/06 03:25:20;;;;;;;28.33;14.38;;;;;;;;;;5001952;28;97886;-75
2022/03/06 03:27:46;;;;;;;30.35;15.55;;;;;;;;;;5004779;28;95853;-75
2022/03/06 03:30:14;;;;;;;28.85;14.77;;;;;;;;;;5005570;28;95729;-75
2022/03/06 03:32:40;;;;;;;31.65;15.35;;;;;;;;;;5002965;28;96301;-75
2022/03/06 03:35:07;;;;;;;30.48;15.73;;;;;;;;;;5001831;28;97234;-75
2022/03/06 03:37:34;;;;;;;27.98;14.32;;;;;;;;;;5003589;28;96519;-75
2022/03/06 03:40:00;;;;;;;26.50;14.15;;;;;;;;;;4990919;28;95353;-75
2022/03/06 03:42:27;;;;;;;26.88;13.55;;;;;;;;;;5029794;27;95909;-76
2022/03/06 03:44:53;;;;;;;30.83;15.38;;;;;;;;;;5001522;28;97302;-77
2022/03/06 03:47:19;;;;;;;27.23;14.85;;;;;;;;;;5011582;28;96772;-75
2022/03/06 03:49:46;;;;;;;29.15;14.63;;;;;;;;;;5010045;28;96899;-77
2022/03/06 03:52:12;;;;;;;30.20;16.13;;;;;;;;;;5013366;28;97362;-75
2022/03/06 03:54:39;;;;;;;30.75;15.73;;;;;;;;;;5018431;28;96648;-76
2022/03/06 03:57:05;;;;;;;30.02;15.15;;;;;;;;;;5016665;28;97340;-75
2022/03/06 03:59:31;;;;;;;32.03;16.38;;;;;;;;;;5010905;28;95360;-75
2022/03/06 04:01:58;;;;;;;31.15;16.17;;;;;;;;;;5026869;28;97216;-76
2022/03/06 04:04:26;;;;;;;30.52;16.10;;;;;;;;;;5016125;28;97335;-76
2022/03/06 04:06:52;;;;;;;30.15;15.48;;;;;;;;;;5023080;28;95804;-76
2022/03/06 04:09:19;;;;;;;28.83;17.10;;;;;;;;;;5016600;28;96800;-76
2022/03/06 04:11:45;;;;;;;33.55;16.63;;;;;;;;;;5010676;28;95399;-75
2022/03/06 04:14:12;;;;;;;30.50;16.73;;;;;;;;;;5012221;28;95361;-76
2022/03/06 04:16:38;;;;;;;32.67;16.63;;;;;;;;;;5013179;28;97803;-76
2022/03/06 04:19:04;;;;;;;30.08;16.88;;;;;;;;;;5014165;28;96048;-76
2022/03/06 04:21:31;;;;;;;30.67;16.15;;;;;;;;;;5018318;28;96993;-75
2022/03/06 04:23:57;;;;;;;31.50;16.50;;;;;;;;;;5008026;28;96170;-76
2022/03/06 04:26:23;;;;;;;36.88;18.23;;;;;;;;;;5022682;28;95447;-76
2022/03/06 04:28:50;;;;;;;32.78;16.77;;;;;;;;;;5024833;28;96892;-76
2022/03/06 04:31:16;;;;;;;28.58;15.85;;;;;;;;;;5023417;28;96969;-77
2022/03/06 04:33:42;;;;;;;34.80;17.63;;;;;;;;;;5016244;27;96099;-75
2022/03/06 04:36:10;;;;;;;33.03;17.33;;;;;;;;;;5024043;28;97295;-77
2022/03/06 04:38:38;;;;;;;31.70;17.00;;;;;;;;;;5020945;28;95334;-75
2022/03/06 04:41:04;;;;;;;30.83;16.73;;;;;;;;;;5021984;28;96776;-75
2022/03/06 04:43:30;;;;;;;32.20;17.25;;;;;;;;;;5012987;28;97429;-75
2022/03/06 04:45:57;;;;;;;30.33;17.80;;;;;;;;;;4996194;28;95393;-74
2022/03/06 04:48:23;;;;;;;33.17;17.67;;;;;;;;;;5025241;27;97236;-75
2022/03/06 04:50:49;;;;;;;30.63;18.08;;;;;;;;;;5019849;28;96432;-75
2022/03/06 04:53:16;;;;;;;34.00;18.77;;;;;;;;;;5014323;28;96215;-75
2022/03/06 04:55:42;;;;;;;33.78;19.02;;;;;;;;;;5029093;28;97279;-76
2022/03/06 04:58:08;;;;;;;32.47;18.55;;;;;;;;;;5015066;28;95453;-73
2022/03/06 05:00:35;;;;;;;34.60;18.23;;;;;;;;;;5022052;27;96846;-75
2022/03/06 05:03:01;;;;;;;30.73;17.65;;;;;;;;;;5016510;27;97248;-76
2022/03/06 05:05:28;;;;;;;31.77;16.63;;;;;;;;;;5025408;28;95996;-76
2022/03/06 05:07:54;;;;;;;37.10;19.13;;;;;;;;;;5015794;28;98978;-74
2022/03/06 05:10:21;;;;;;;35.10;19.65;;;;;;;;;;5013623;27;96723;-75
2022/03/06 05:12:47;;;;;;;35.22;19.65;;;;;;;;;;5015690;28;95365;-77
2022/03/06 05:15:14;;;;;;;35.88;18.67;;;;;;;;;;5022385;28;97104;-78
2022/03/06 05:17:40;;;;;;;33.47;18.23;;;;;;;;;;5017524;28;97735;-78
2022/03/06 05:20:08;;;;;;;35.10;18.98;;;;;;;;;;5012230;27;96819;-77
2022/03/06 05:22:34;;;;;;;33.17;19.33;;;;;;;;;;5008241;28;97567;-77
2022/03/06 05:25:00;;;;;;;34.90;19.58;;;;;;;;;;5025226;28;96002;-78
2022/03/06 05:27:27;;;;;;;37.25;19.08;;;;;;;;;;5011567;28;95760;-77
2022/03/06 05:29:54;;;;;;;33.60;19.25;;;;;;;;;;5014577;28;97378;-75
2022/03/06 05:32:20;;;;;;;35.30;17.88;;;;;;;;;;5022460;27;95571;-75
2022/03/06 05:34:46;;;;;;;34.28;18.20;;;;;;;;;;5016211;28;96853;-74
2022/03/06 05:37:13;;;;;;;37.25;18.83;;;;;;;;;;5009692;28;97497;-76
2022/03/06 05:39:39;;;;;;;30.10;18.38;;;;;;;;;;5010308;28;96204;-76
2022/03/06 05:42:05;;;;;;;33.92;18.75;;;;;;;;;;5000450;28;97386;-77
2022/03/06 05:44:32;;;;;;;38.38;20.23;;;;;;;;;;5014957;28;95475;-77
2022/03/06 05:46:58;;;;;;;36.33;20.65;;;;;;;;;;5002972;28;97612;-75
2022/03/06 05:49:24;;;;;;;34.20;19.65;;;;;;;;;;5006919;28;97029;-76
2022/03/06 05:51:51;;;;;;;34.80;19.15;;;;;;;;;;5004292;28;95619;-74
2022/03/06 05:54:20;;;;;;;36.25;19.75;;;;;;;;;;5008179;28;96740;-77
2022/03/06 05:56:46;;;;;;;32.20;18.77;;;;;;;;;;5007873;28;96518;-76
2022/03/06 05:59:13;;;;;;;33.40;19.10;;;;;;;;;;5008626;28;96494;-76
2022/03/06 17:55:54;;;;;;;11.38;4.70;;;;;;;;;;5022464;27;95847;-74
2022/03/06 17:58:20;;;;;;;8.77;4.55;;;;;;;;;;5006928;28;97554;-73
2022/03/06 18:00:51;;;;;;;10.13;4.65;;;;;;;;;;5004367;28;95245;-74
2022/03/06 18:03:18;;;;;;;10.25;4.90;;;;;;;;;;4995850;28;96406;-73
2022/03/06 18:05:44;;;;;;;10.75;5.65;;;;;;;;;;5013559;28;97345;-74
2022/03/06 18:08:11;;;;;;;8.23;4.40;;;;;;;;;;5009582;28;95388;-74
2022/03/06 18:10:37;;;;;;;24.02;12.77;;;;;;;;;;5007694;28;96467;-74
2022/03/06 18:13:04;;;;;;;20.70;10.90;;;;;;;;;;4999911;28;97338;-73
2022/03/06 18:15:31;;;;;;;12.95;6.00;;;;;;;;;;5006213;28;95420;-77
2022/03/06 18:18:15;;;;;;;20.27;10.82;;;;;;;;;;5017932;28;98991;-74
2022/03/06 18:20:44;;;;;;;32.53;18.65;;;;;;;;;;5014054;28;95366;-74
2022/03/06 18:23:10;;;;;;;16.48;9.25;;;;;;;;;;5021922;28;96770;-75
2022/03/06 18:25:36;;;;;;;12.77;7.82;;;;;;;;;;5013120;28;97362;-76
2022/03/06 18:28:03;;;;;;;12.70;7.20;;;;;;;;;;5010503;28;96989;-74
2022/03/06 18:30:33;;;;;;;9.35;5.47;;;;;;;;;;4995720;28;96565;-74
2022/03/06 18:32:59;;;;;;;13.93;5.88;;;;;;;;;;4999027;28;97296;-75
2022/03/06 18:35:25;;;;;;;14.15;7.32;;;;;;;;;;5003770;28;95694;-75
2022/03/06 18:37:52;;;;;;;13.32;6.20;;;;;;;;;;5010628;28;95763;-75
2022/03/06 18:40:18;;;;;;;13.68;6.75;;;;;;;;;;5005901;27;96512;-75
2022/03/06 18:42:44;;;;;;;10.63;6.30;;;;;;;;;;5014441;28;96789;-74
2022/03/06 18:45:11;;;;;;;10.15;5.95;;;;;;;;;;5009386;28;97258;-74
2022/03/06 18:47:37;;;;;;;10.45;6.03;;;;;;;;;;5012200;28;95935;-75
2022/03/06 18:50:04;;;;;;;13.07;7.80;;;;;;;;;;5004349;28;97058;-75
2022/03/06 18:52:30;;;;;;;12.80;7.38;;;;;;;;;;4990115;28;97288;-76
2022/03/06 18:54:56;;;;;;;13.02;7.82;;;;;;;;;;5007739;28;95654;-75
2022/03/06 18:57:23;;;;;;;12.60;7.18;;;;;;;;;;5016628;28;96811;-74
2022/03/06 18:59:49;;;;;;;12.75;7.80;;;;;;;;;;5017336;28;97872;-74
2022/03/06 19:02:15;;;;;;;15.13;7.15;;;;;;;;;;5012630;27;96747;-75
2022/03/06 19:04:42;;;;;;;11.23;7.07;;;;;;;;;;5002856;27;97554;-76
2022/03/06 19:07:11;;;;;;;16.80;8.18;;;;;;;;;;4996366;28;96154;-75
2022/03/06 19:09:37;;;;;;;25.63;12.80;;;;;;;;;;5000304;28;96454;-75
2022/03/06 19:12:04;;;;;;;14.38;7.40;;;;;;;;;;4988140;28;97081;-77
2022/03/06 19:14:32;;;;;;;15.60;8.75;;;;;;;;;;4989826;28;95556;-74
2022/03/06 19:16:59;;;;;;;14.98;8.15;;;;;;;;;;5000070;28;96570;-74
2022/03/06 19:19:26;;;;;;;13.68;7.32;;;;;;;;;;4996481;28;97712;-75
2022/03/06 19:21:52;;;;;;;13.27;7.80;;;;;;;;;;5008310;28;95744;-74
2022/03/06 19:24:18;;;;;;;14.43;7.88;;;;;;;;;;5002961;28;97523;-76
2022/03/06 19:26:45;;;;;;;13.13;7.55;;;;;;;;;;4999362;28;95687;-76
2022/03/06 19:29:11;;;;;;;14.43;7.68;;;;;;;;;;4998352;28;96917;-76
2022/03/06 19:31:42;;;;;;;12.38;7.15;;;;;;;;;;4993839;28;97319;-74
2022/03/06 19:34:09;;;;;;;16.77;8.23;;;;;;;;;;4991800;28;95731;-74
2022/03/06 19:36:36;;;;;;;15.50;7.40;;;;;;;;;;4990493;28;96363;-75
2022/03/06 19:39:03;;;;;;;15.40;7.95;;;;;;;;;;4988619;28;97295;-75
2022/03/06 19:41:29;;;;;;;14.25;7.20;;;;;;;;;;4988731;28;95300;-74
2022/03/06 19:43:55;;;;;;;13.55;8.27;;;;;;;;;;5009598;28;96794;-74
2022/03/06 19:46:21;;;;;;;22.42;9.20;;;;;;;;;;4987639;28;95610;-77
2022/03/06 19:48:48;;;;;;;18.77;8.98;;;;;;;;;;4990974;28;95972;-76
2022/03/06 19:51:14;;;;;;;12.48;7.10;;;;;;;;;;4979617;28;97304;-76
2022/03/06 19:53:45;;;;;;;12.65;7.60;;;;;;;;;;5005594;28;95436;-76
2022/03/06 19:56:15;;;;;;;24.40;12.65;;;;;;;;;;4987289;28;96775;-76
2022/03/06 19:58:42;;;;;;;15.52;9.65;;;;;;;;;;4985081;28;97606;-75
2022/03/06 20:01:11;;;;;;;20.35;11.60;;;;;;;;;;4976888;28;95994;-74
2022/03/06 20:03:38;;;;;;;23.05;11.57;;;;;;;;;;4969366;28;96615;-76
2022/03/06 20:06:04;;;;;;;19.17;12.50;;;;;;;;;;4971857;28;96062;-76
2022/03/06 20:08:31;;;;;;;18.92;11.70;;;;;;;;;;4988836;28;97141;-75
2022/03/06 20:10:57;;;;;;;18.45;10.25;;;;;;;;;;4987736;28;98462;-76
2022/03/06 20:13:23;;;;;;;20.55;10.38;;;;;;;;;;4998742;28;95753;-75
2022/03/06 20:15:55;;;;;;;15.40;9.10;;;;;;;;;;4996117;28;96882;-75
2022/03/06 20:18:22;;;;;;;17.88;9.98;;;;;;;;;;4995038;28;97358;-75
2022/03/06 20:20:49;;;;;;;11.27;6.40;;;;;;;;;;4994539;28;96373;-77
2022/03/06 20:23:15;;;;;;;12.00;6.80;;;;;;;;;;4987703;28;96491;-75
2022/03/06 20:25:42;;;;;;;12.68;6.97;;;;;;;;;;5004490;28;97570;-74
2022/03/06 20:28:08;;;;;;;17.58;10.10;;;;;;;;;;4984917;28;97495;-74
2022/03/06 20:30:48;;;;;;;28.17;14.80;;;;;;;;;;4984508;28;97324;-74
2022/03/06 20:33:15;;;;;;;26.38;12.73;;;;;;;;;;4993886;28;95565;-75
2022/03/06 20:35:41;;;;;;;33.22;16.00;;;;;;;;;;5002941;28;97108;-76
2022/03/06 20:38:07;;;;;;;22.80;11.75;;;;;;;;;;4995519;28;97151;-75
2022/03/06 20:40:34;;;;;;;18.77;9.15;;;;;;;;;;5007434;28;95374;-75
2022/03/06 20:43:00;;;;;;;12.18;7.68;;;;;;;;;;4993931;28;96870;-75
2022/03/06 20:45:26;;;;;;;14.88;9.50;;;;;;;;;;4989240;28;97315;-76
2022/03/06 20:47:52;;;;;;;17.10;10.30;;;;;;;;;;5006063;28;95799;-75
2022/03/06 20:50:19;;;;;;;16.40;8.95;;;;;;;;;;5005284;28;97386;-75
2022/03/06 20:52:46;;;;;;;17.75;10.73;;;;;;;;;;4997276;28;95461;-75
2022/03/06 20:55:16;;;;;;;17.90;9.60;;;;;;;;;;4986170;28;98388;-76
2022/03/06 20:57:42;;;;;;;21.88;11.13;;;;;;;;;;4993766;28;97438;-77
2022/03/06 21:00:09;;;;;;;14.90;7.75;;;;;;;;;;5005806;28;95408;-77
2022/03/06 21:02:35;;;;;;;13.88;6.88;;;;;;;;;;5005817;28;97310;-76
2022/03/06 21:05:05;;;;;;;18.17;7.63;;;;;;;;;;4992129;28;97407;-76
2022/03/06 21:07:31;;;;;;;11.88;7.10;;;;;;;;;;4995346;28;95590;-77
2022/03/06 21:10:02;;;;;;;13.98;8.23;;;;;;;;;;4997228;28;97146;-76
2022/03/06 21:12:29;;;;;;;12.90;7.85;;;;;;;;;;4991357;28;96237;-74
2022/03/06 21:14:56;;;;;;;20.75;9.07;;;;;;;;;;4993608;28;96800;-75
2022/03/06 21:17:22;;;;;;;18.67;8.27;;;;;;;;;;4993004;28;96001;-75
2022/03/06 21:19:48;;;;;;;17.85;7.90;;;;;;;;;;4991980;28;95628;-75
2022/03/06 21:22:15;;;;;;;13.23;7.88;;;;;;;;;;4989938;28;96728;-75
2022/03/06 21:24:41;;;;;;;22.23;10.77;;;;;;;;;;4987063;28;97612;-76
2022/03/06 21:27:10;;;;;;;18.33;10.70;;;;;;;;;;4986386;28;95517;-76
2022/03/06 21:29:37;;;;;;;22.80;10.55;;;;;;;;;;4988058;28;96820;-76
2022/03/06 21:32:03;;;;;;;18.80;10.85;;;;;;;;;;5005481;28;97355;-76
2022/03/06 21:34:33;;;;;;;19.38;11.02;;;;;;;;;;4987813;28;96711;-76
2022/03/06 21:36:59;;;;;;;23.05;11.13;;;;;;;;;;4987274;28;97717;-76
2022/03/06 21:39:26;;;;;;;20.98;11.18;;;;;;;;;;4987853;28;96540;-75
2022/03/06 21:41:54;;;;;;;19.25;9.90;;;;;;;;;;5001601;28;97150;-75
2022/03/06 21:44:20;;;;;;;22.00;10.27;;;;;;;;;;4988656;28;97608;-75
2022/03/06 21:46:47;;;;;;;19.63;9.13;;;;;;;;;;4988191;28;95683;-76
2022/03/06 21:49:13;;;;;;;15.15;8.30;;;;;;;;;;4979925;28;96736;-76
2022/03/06 21:51:40;;;;;;;18.42;8.35;;;;;;;;;;5007849;28;96671;-75
2022/03/06 21:54:06;;;;;;;16.00;9.48;;;;;;;;;;4991552;28;95419;-75
2022/03/06 21:56:33;;;;;;;17.38;10.18;;;;;;;;;;4989024;28;97457;-75
2022/03/06 21:59:10;;;;;;;19.98;10.52;;;;;;;;;;4981541;28;95860;-74
2022/03/06 22:01:38;;;;;;;20.30;10.95;;;;;;;;;;4980841;28;97510;-74
2022/03/06 22:04:05;;;;;;;19.13;10.48;;;;;;;;;;4994014;28;97286;-76
2022/03/06 22:06:32;;;;;;;23.20;9.27;;;;;;;;;;4991712;28;95725;-75
2022/03/06 22:08:58;;;;;;;13.55;7.82;;;;;;;;;;4987563;28;96845;-75
2022/03/06 22:11:25;;;;;;;13.73;8.48;;;;;;;;;;4991138;28;97980;-73
2022/03/06 22:13:52;;;;;;;14.63;8.25;;;;;;;;;;5010999;28;95620;-76
2022/03/06 22:16:19;;;;;;;13.48;8.38;;;;;;;;;;5007999;28;96217;-73
2022/03/06 22:18:46;;;;;;;12.70;8.02;;;;;;;;;;5003841;28;95917;-74
2022/03/06 22:21:12;;;;;;;18.45;8.50;;;;;;;;;;4987743;28;98425;-75
2022/03/06 22:23:38;;;;;;;17.38;8.95;;;;;;;;;;4988331;28;97353;-74
2022/03/06 22:26:05;;;;;;;24.55;10.07;;;;;;;;;;4988084;28;95407;-74
2022/03/06 22:28:31;;;;;;;23.35;10.63;;;;;;;;;;4983947;28;96056;-74
2022/03/06 22:30:57;;;;;;;16.33;9.20;;;;;;;;;;5008064;28;97580;-77
2022/03/06 22:33:24;;;;;;;15.10;9.15;;;;;;;;;;5008422;28;95429;-75
2022/03/06 22:35:50;;;;;;;17.80;9.55;;;;;;;;;;5010896;28;96657;-74
2022/03/06 22:38:17;;;;;;;17.75;9.43;;;;;;;;;;4998344;28;95357;-76
2022/03/06 22:40:43;;;;;;;18.70;9.60;;;;;;;;;;4990069;28;96804;-74
2022/03/06 22:43:10;;;;;;;18.65;9.52;;;;;;;;;;4980232;28;97811;-76
2022/03/06 22:45:37;;;;;;;18.65;9.98;;;;;;;;;;4971647;28;95473;-76
2022/03/06 22:48:04;;;;;;;16.02;9.48;;;;;;;;;;4977344;28;96846;-75
2022/03/06 22:50:31;;;;;;;23.70;10.88;;;;;;;;;;5001629;28;97759;-75
2022/03/06 22:52:57;;;;;;;24.25;10.48;;;;;;;;;;5011552;28;95825;-75
2022/03/06 22:55:24;;;;;;;19.00;10.73;;;;;;;;;;5010555;28;96906;-75
2022/03/06 22:57:50;;;;;;;20.38;10.55;;;;;;;;;;5008569;28;97525;-75
2022/03/06 23:00:18;;;;;;;22.15;11.27;;;;;;;;;;4999561;28;97296;-75
2022/03/06 23:02:45;;;;;;;20.67;11.60;;;;;;;;;;5010655;28;97297;-75
2022/03/06 23:07:57;;;;;;;17.27;8.90;;;;;;;;;;5007395;28;96743;-75
2022/03/06 23:10:23;;;;;;;15.50;8.25;;;;;;;;;;4997463;28;97199;-75
2022/03/06 23:12:50;;;;;;;15.82;8.90;;;;;;;;;;5011154;28;95405;-75
2022/03/06 23:15:16;;;;;;;15.40;8.90;;;;;;;;;;5011007;28;96879;-75
2022/03/06 23:17:42;;;;;;;25.42;10.18;;;;;;;;;;5009145;28;97279;-76
2022/03/06 23:20:09;;;;;;;22.25;11.35;;;;;;;;;;4998397;28;95369;-75
2022/03/06 23:22:35;;;;;;;17.85;8.57;;;;;;;;;;5010962;28;97392;-75
2022/03/06 23:25:02;;;;;;;25.83;11.45;;;;;;;;;;5010211;28;95519;-76
2022/03/06 23:27:28;;;;;;;19.88;9.57;;;;;;;;;;5009462;28;97122;-76
2022/03/06 23:29:54;;;;;;;21.88;9.82;;;;;;;;;;4990529;28;97384;-74
2022/03/06 23:32:21;;;;;;;19.80;10.10;;;;;;;;;;4993765;28;95449;-75
2022/03/06 23:34:47;;;;;;;16.55;9.25;;;;;;;;;;5009743;28;96249;-74
2022/03/06 23:37:13;;;;;;;19.63;9.90;;;;;;;;;;5010086;28;97426;-75
2022/03/06 23:39:40;;;;;;;16.58;9.30;;;;;;;;;;4995599;28;95955;-74
2022/03/06 23:42:06;;;;;;;20.52;9.38;;;;;;;;;;4993945;28;97112;-76
2022/03/06 23:44:33;;;;;;;19.88;8.73;;;;;;;;;;4990573;28;96327;-74
2022/03/06 23:46:59;;;;;;;20.83;9.68;;;;;;;;;;4993189;28;97216;-74
2022/03/06 23:49:25;;;;;;;19.10;9.48;;;;;;;;;;4989472;28;97508;-75
2022/03/06 23:51:52;;;;;;;21.63;10.65;;;;;;;;;;4989926;28;95693;-74
2022/03/06 23:54:18;;;;;;;18.13;10.70;;;;;;;;;;4988436;28;96902;-74
2022/03/06 23:56:45;;;;;;;22.92;10.35;;;;;;;;;;4990030;28;97331;-74
2022/03/06 23:59:12;;;;;;;21.13;11.15;;;;;;;;;;4988937;28;95578;-74
